• Join FlightAware (Why Join?)
  • Login
  • US Flag 
12:26PM EDT


 

Airport Tracker/Info


-or-


 

Live Flight TrackerFlight Track Log ✈ DAL268 ✈ 02-Sep-2013 ✈ KSFO - KJFK

Flight Track Log - Related Links

Times and Time Zones

All times are in EDT time to prevent confusion due to time zone crossing. See the DAL268 flight status page for this flight to view local times or setup timezone preferences in your user account.

Time Position Orientation Groundspeed Altitude Reporting Facility
EDT Latitude Longitude Course Direction KTS MPH feet Rate Location/Type
03:02PM 37.6210 -122.3710 360° North 165 190  Level FlightAware
03:02PM 37.6332 -122.3630 27° Northeast 168 193 700 2,400 Climbing FlightAware ADS-B
03:02PM 37.6397 -122.3560 40° Northeast 175 201 1,100 2,280 Climbing FlightAware ADS-B
03:03PM 37.6440 -122.3500 48° Northeast 181 208 1,400 1,320 Climbing FlightAware ADS-B
03:03PM 37.6504 -122.3410 48° Northeast 200 230 1,500 1,080 Climbing FlightAware ADS-B
03:03PM 37.6604 -122.3260 50° Northeast 222 255 1,900 1,740 Climbing FlightAware ADS-B
03:03PM 37.6710 -122.3100 50° Northeast 237 273 2,400 1,980 Climbing FlightAware ADS-B
03:03PM 37.6778 -122.3000 49° Northeast 244 281 2,700 1,980 Climbing FlightAware ADS-B
03:04PM 37.6893 -122.2830 49° Northeast 257 296 3,200 1,920 Climbing FlightAware ADS-B
03:04PM 37.7049 -122.2610 48° Northeast 269 310 3,800 2,220 Climbing FlightAware ADS-B
03:04PM 37.7204 -122.2410 46° Northeast 279 321 4,600 2,760 Climbing FlightAware ADS-B
03:05PM 37.7407 -122.2130 47° Northeast 284 327 5,700 2,700 Climbing FlightAware ADS-B
03:05PM 37.7516 -122.1980 47° Northeast 289 333 6,200 2,220 Climbing FlightAware ADS-B
03:05PM 37.7648 -122.1770 52° Northeast 296 341 6,700 2,100 Climbing FlightAware ADS-B
03:05PM 37.7774 -122.1550 54° Northeast 301 346 7,300 2,220 Climbing FlightAware ADS-B
03:06PM 37.7909 -122.1330 52° Northeast 305 351 7,900 2,100 Climbing FlightAware ADS-B
03:06PM 37.8043 -122.1110 52° Northeast 314 361 8,400 2,400 Climbing FlightAware ADS-B
03:06PM 37.8182 -122.0880 53° Northeast 312 359 9,100 2,820 Climbing FlightAware ADS-B
03:06PM 37.8247 -122.0780 51° Northeast 309 356 9,500 2,460 Climbing FlightAware ADS-B
03:06PM 37.8277 -122.0720 58° Northeast 307 353 9,600 1,980 Climbing FlightAware ADS-B
03:06PM 37.8315 -122.0640 59° Northeast 309 356 9,800 2,220 Climbing FlightAware ADS-B
03:06PM 37.8336 -122.0590 62° Northeast 310 357 9,900 1,380 Climbing FlightAware ADS-B
03:07PM 37.8467 -122.0200 67° East 323 372 10,400 1,380 Climbing FlightAware ADS-B
03:07PM 37.8545 -121.9940 69° East 330 380 10,800 1,380 Climbing FlightAware ADS-B
03:08PM 37.8728 -121.9150 74° East 352 405 11,700 1,140 Climbing FlightAware ADS-B
03:08PM 37.8864 -121.8500 75° East 380 437 12,200 1,200 Climbing FlightAware ADS-B
03:09PM 37.9004 -121.7840 75° East 393 452 13,000 1,080 Climbing FlightAware ADS-B
03:09PM 37.9162 -121.7150 74° East 416 479 13,300 1,140 Climbing FlightAware ADS-B
03:10PM 37.9334 -121.6420 73° East 427 491 14,200 1,440 Climbing FlightAware ADS-B
03:10PM 37.9508 -121.5650 74° East 442 509 14,800 3,600 Climbing FlightAware ADS-B
03:11PM 37.9662 -121.5000 73° East 379 436 17,800 4,260 Climbing FlightAware ADS-B
03:11PM 37.9801 -121.4370 74° East 368 423 19,000 2,100 Climbing FlightAware ADS-B
03:12PM 37.9935 -121.3740 75° East 369 425 19,900 1,320 Climbing FlightAware ADS-B
03:12PM 38.0073 -121.3090 75° East 379 436 20,400 840 Climbing FlightAware ADS-B
03:13PM 38.0300 -121.2070 74° East 400 460 21,000 660 Climbing FlightAware
03:14PM 38.0480 -121.1280 74° East 420 483 21,300 480 Climbing FlightAware
03:14PM 38.0650 -121.0460 75° East 437 503 21,600 600 Climbing FlightAware
03:15PM 38.0810 -120.9580 77° East 449 517 22,000 780 Climbing FlightAware
03:16PM 38.0950 -120.8530 80° East 461 531 22,600 1,200 Climbing FlightAware
03:16PM 38.1070 -120.7670 80° East 458 527 23,500 2,400 Climbing FlightAware
03:17PM 38.1190 -120.6780 80° East 426 490 25,400 1,920 Climbing FlightAware
03:17PM 38.1310 -120.5860 81° East 437 503 25,800 720 Climbing FlightAware
03:18PM 38.1430 -120.4930 81° East 445 512 26,300 840 Climbing FlightAware
03:18PM 38.1540 -120.4110 80° East 449 517 26,800 720 Climbing FlightAware
03:19PM 38.1670 -120.3100 81° East 461 531 27,200 540 Climbing FlightAware
03:20PM 38.1800 -120.2170 80° East 471 542 27,500 600 Climbing FlightAware
03:20PM 38.1910 -120.1290 81° East 476 548 27,900 540 Climbing FlightAware
03:21PM 38.2020 -120.0430 81° East 482 555 28,100 420 Climbing FlightAware
03:21PM 38.2150 -119.9430 81° East 490 564 28,400 540 Climbing FlightAware
03:22PM 38.2290 -119.8320 81° East 497 572 28,800 900 Climbing FlightAware
03:22PM 38.2400 -119.7420 81° East 492 566 29,500 1,200 Climbing FlightAware
03:23PM 38.2520 -119.6460 81° East 488 562 30,200 960 Climbing FlightAware
03:24PM 38.2650 -119.5460 81° East 489 563 30,600 840 Climbing FlightAware
03:24PM 38.2770 -119.4470 81° East 488 562 31,200 960 Climbing FlightAware
03:25PM 38.2890 -119.3480 81° East 488 562 31,700 900 Climbing FlightAware
03:25PM 38.3010 -119.2520 81° East 487 560 32,200 900 Climbing FlightAware
03:26PM 38.3130 -119.1460 82° East 483 556 32,800 840 Climbing FlightAware
03:26PM 38.3240 -119.0540 81° East 486 559 33,200 600 Climbing FlightAware
03:27PM 38.3350 -118.9610 81° East 485 558 33,500 600 Climbing FlightAware
03:28PM 38.3470 -118.8620 81° East 482 555 33,900 540 Climbing FlightAware
03:28PM 38.3590 -118.7660 81° East 479 551 34,200 180 Climbing FlightAware
03:29PM 38.3690 -118.6800 82° East 479 551 34,200 840 Level FlightAware
03:30PM 38.3840 -118.5430 82° East 473 544 35,300 1,260 Climbing FlightAware
03:30PM 38.3950 -118.4430 82° East 467 537 35,800 600 Climbing FlightAware
03:31PM 38.4050 -118.3530 82° East 464 534 36,000 300 Climbing FlightAware
03:31PM 38.4160 -118.2550 82° East 465 535 36,200 300 Climbing FlightAware
03:32PM 38.4260 -118.1660 82° East 464 534 36,400 300 Climbing FlightAware
03:32PM 38.4370 -118.0690 82° East 465 535 36,600 240 Climbing FlightAware
03:33PM 38.4480 -117.9720 82° East 465 535 36,700 60 Climbing FlightAware
03:34PM 38.4600 -117.8590 82° East 467 537 36,700  Level FlightAware
03:34PM 38.4690 -117.7750 82° East 467 537 36,700  Level FlightAware
03:35PM 38.4790 -117.6910 81° East 467 537 36,700  Level FlightAware
03:36PM 38.4880 -117.6080 82° East 467 537 36,700  Level FlightAware
03:36PM 38.4970 -117.5240 82° East 467 537 36,700  Level FlightAware
03:37PM 38.5070 -117.4330 82° East 467 537 36,700  Level FlightAware
03:37PM 38.5160 -117.3470 82° East 467 537 36,700  Level FlightAware
03:38PM 38.5250 -117.2640 82° East 467 537 36,700  Level FlightAware
03:39PM 38.5350 -117.1800 81° East 467 537 36,700  Level FlightAware
03:39PM 38.5440 -117.0960 82° East 467 537 36,700  Level FlightAware
03:40PM 38.5530 -117.0130 82° East 467 537 36,700  Level FlightAware
03:41PM 38.5660 -116.8990 82° East 467 537 36,700  Level FlightAware
03:41PM 38.5750 -116.8150 82° East 467 537 36,700  Level FlightAware
03:42PM 38.5840 -116.7310 82° East 467 537 36,700  Level FlightAware
03:42PM 38.5930 -116.6520 82° East 467 537 36,700  Level FlightAware
03:43PM 38.6020 -116.5680 82° East 467 537 36,700 180 Level FlightAware
03:44PM 38.4939 -116.2008 82° East 462 532 37,000 180 Climbing Oakland Center
03:45PM 38.4906 -116.1014 92° East 465 535 37,000  Level Salt Lake Center
03:46PM 38.4867 -115.9389 92° East 459 528 37,000  Level Salt Lake Center
03:47PM 38.4803 -115.7775 93° East 455 524 37,000  Level Salt Lake Center
03:48PM 38.4753 -115.6175 92° East 453 521 37,000  Level Salt Lake Center
03:49PM 38.4689 -115.4256 92° East 451 519 37,000  Level Salt Lake Center
03:50PM 38.4639 -115.2725 92° East 451 519 37,000  Level Salt Lake Center
03:51PM 38.4586 -115.1119 92° East 453 521 37,000  Level Salt Lake Center
03:52PM 38.4531 -114.9539 93° East 449 517 37,000  Level Salt Lake Center
03:53PM 38.4836 -114.7931 76° East 462 532 37,000  Level Salt Lake Center
03:54PM 38.5186 -114.6011 77° East 464 534 37,000  Level Salt Lake Center
03:55PM 38.5469 -114.4417 77° East 461 531 37,000  Level Salt Lake Center
03:56PM 38.5731 -114.2839 78° East 455 524 37,000  Level Salt Lake Center
03:57PM 38.5992 -114.1269 78° East 452 520 37,000  Level Salt Lake Center
03:58PM 38.6178 -113.9675 81° East 453 521 37,000  Level Salt Lake Center
03:59PM 38.6392 -113.8081 80° East 455 524 37,000  Level Salt Lake Center
04:05PM 38.7056 -112.8430 80° East 444 511 37,000  Level FlightAware ADS-B
04:05PM 38.7036 -112.7630 92° East 444 511 37,000  Level FlightAware ADS-B
04:06PM 38.7020 -112.6830 91° East 444 511 37,000  Level FlightAware ADS-B
04:06PM 38.7005 -112.6000 91° East 444 511 37,000  Level FlightAware ADS-B
04:07PM 38.6990 -112.5210 91° East 443 510 37,000  Level FlightAware ADS-B
04:07PM 38.6973 -112.4390 91° East 443 510 37,000  Level FlightAware ADS-B
04:08PM 38.6947 -112.3200 92° East 442 509 37,000  Level FlightAware ADS-B
04:09PM 38.6927 -112.2340 92° East 442 509 37,000  Level FlightAware ADS-B
04:09PM 38.6906 -112.1490 92° East 442 509 37,000  Level FlightAware ADS-B
04:10PM 38.6879 -112.0430 92° East 442 509 37,000  Level FlightAware ADS-B
04:11PM 38.6859 -111.9640 92° East 442 509 37,000  Level FlightAware ADS-B
04:11PM 38.6837 -111.8840 92° East 441 507 37,000  Level FlightAware ADS-B
04:12PM 38.6808 -111.7770 92° East 441 507 37,000  Level FlightAware ADS-B
04:12PM 38.6786 -111.6990 92° East 441 507 37,000  Level FlightAware ADS-B
04:13PM 38.6762 -111.6170 92° East 441 507 37,000  Level FlightAware ADS-B
04:13PM 38.6734 -111.5210 92° East 442 509 37,000  Level FlightAware ADS-B
04:14PM 38.6706 -111.4300 92° East 442 509 37,000  Level FlightAware ADS-B
04:14PM 38.6679 -111.3440 92° East 442 509 37,000  Level FlightAware ADS-B
04:15PM 38.6644 -111.2350 92° East 441 507 37,000  Level FlightAware ADS-B
04:16PM 38.6609 -111.1280 92° East 442 509 37,000  Level FlightAware ADS-B
04:17PM 38.6563 -110.9920 92° East 442 509 37,000  Level FlightAware ADS-B
04:18PM 38.6470 -110.7270 92° East 441 507 37,000  Level FlightAware
04:19PM 38.6470 -110.7270 92° East 442 509 37,000  Level FlightAware
04:20PM 38.6400 -110.5300 93° East 441 507 37,000  Level FlightAware
04:20PM 38.6380 -110.4500 92° East 441 507 37,000  Level FlightAware
04:21PM 38.6360 -110.3700 92° East 441 507 37,000  Level FlightAware
04:22PM 38.6420 -110.5860 272° West 37,000  Level FlightAware
04:22PM 38.6260 -110.2050 93° East 442 509 37,000  Level FlightAware
04:22PM 38.6220 -110.1120 93° East 442 509 37,000  Level FlightAware
04:23PM 38.6190 -110.0200 92° East 442 509 37,000  Level FlightAware
04:24PM 38.6140 -109.9170 94° East 443 510 37,000  Level FlightAware
04:24PM 38.6110 -109.8370 93° East 443 510 37,000  Level FlightAware
04:25PM 38.6040 -109.7030 94° East 444 511 37,000  Level FlightAware
04:26PM 38.6000 -109.6070 93° East 444 511 37,000  Level FlightAware
04:26PM 38.5960 -109.5180 93° East 445 512 37,000  Level FlightAware
04:27PM 38.5910 -109.4180 94° East 445 512 37,000  Level FlightAware
04:27PM 38.5860 -109.3150 94° East 445 512 37,000  Level FlightAware
04:28PM 38.5810 -109.2210 94° East 445 512 37,000  Level FlightAware
04:29PM 38.5760 -109.1230 94° East 445 512 37,000  Level FlightAware
04:29PM 38.5710 -109.0170 93° East 447 514 37,000  Level FlightAware
04:30PM 38.5670 -108.9420 94° East 449 517 37,000  Level FlightAware
04:30PM 38.5620 -108.8370 93° East 448 516 37,000  Level FlightAware
04:31PM 38.5590 -108.7730 93° East 449 517 37,000  Level FlightAware
04:32PM 38.5510 -108.6440 94° East 449 517 37,000  Level FlightAware
04:32PM 38.5520 -108.6500 282° West 449 517 37,000  Level FlightAware
04:33PM 38.5390 -108.4200 94° East 449 517 37,000  Level FlightAware
04:34PM 38.5330 -108.3120 94° East 449 517 37,000  Level FlightAware
04:35PM 38.5260 -108.2000 95° East 449 517 37,000  Level FlightAware
04:35PM 38.5190 -108.0790 94° East 448 516 37,000  Level FlightAware
04:36PM 38.5150 -108.0070 94° East 448 516 37,000  Level FlightAware
04:36PM 38.5090 -107.9140 95° East 448 516 37,000  Level FlightAware
04:37PM 38.5040 -107.8280 94° East 449 517 37,000  Level FlightAware
04:38PM 38.4980 -107.7340 95° East 449 517 37,000  Level FlightAware
04:38PM 38.4900 -107.6150 95° East 448 516 37,000  Level FlightAware
04:39PM 38.4840 -107.5150 94° East 448 516 37,000  Level FlightAware
04:39PM 38.4780 -107.4220 95° East 446 513 37,000  Level FlightAware
04:40PM 38.4730 -107.3170 93° East 445 512 37,000  Level FlightAware
04:41PM 38.4890 -107.2340 76° East 448 516 37,000  Level FlightAware
04:41PM 38.5170 -107.1530 66° East 448 516 37,000  Level FlightAware
04:42PM 38.5440 -107.0760 66° East 448 516 37,000  Level FlightAware
04:42PM 38.5780 -106.9770 66° East 448 516 37,000  Level FlightAware
04:43PM 38.6050 -106.8990 66° East 447 514 37,000  Level FlightAware
04:44PM 38.6350 -106.8140 66° East 447 514 37,000  Level FlightAware
04:44PM 38.6620 -106.7370 66° East 447 514 37,000  Level FlightAware
04:45PM 38.6980 -106.6310 66° East 447 514 37,000  Level FlightAware
04:45PM 38.7220 -106.5560 68° East 446 513 37,000  Level FlightAware
04:46PM 38.7530 -106.4580 68° East 445 512 37,000  Level FlightAware
04:47PM 38.7760 -106.3770 70° East 445 512 37,000  Level FlightAware
04:47PM 38.7980 -106.2950 71° East 445 512 37,000  Level FlightAware
04:48PM 38.8230 -106.2050 70° East 446 513 37,000  Level FlightAware
04:48PM 38.8490 -106.1080 71° East 446 513 37,000  Level FlightAware
04:49PM 38.8720 -106.0260 70° East 447 514 37,000  Level FlightAware
04:49PM 38.8960 -105.9360 71° East 447 514 37,000  Level FlightAware
04:50PM 38.9190 -105.8520 71° East 448 516 37,000  Level FlightAware
04:51PM 38.9320 -105.7600 80° East 445 512 37,000  Level FlightAware
04:51PM 38.9260 -105.6640 95° East 445 512 37,000  Level FlightAware
04:52PM 38.9150 -105.5800 100° East 445 512 37,000  Level FlightAware
04:52PM 38.8960 -105.4800 104° East 446 513 37,000  Level FlightAware
04:53PM 38.8790 -105.3860 103° East 446 513 37,000  Level FlightAware
04:54PM 38.8630 -105.2930 102° East 445 512 37,000  Level FlightAware
04:54PM 38.8500 -105.2100 101° East 445 512 37,000  Level FlightAware
04:55PM 38.8320 -105.1120 103° East 446 513 37,000  Level FlightAware
04:55PM 38.8150 -105.0230 104° East 447 514 37,000  Level FlightAware
04:56PM 38.8000 -104.9420 103° East 447 514 37,000  Level FlightAware
04:57PM 38.7810 -104.8420 104° East 448 516 37,000  Level FlightAware
04:57PM 38.7630 -104.7490 104° East 449 517 37,000  Level FlightAware
04:58PM 38.7470 -104.6660 104° East 449 517 37,000  Level FlightAware
04:58PM 38.7300 -104.5750 103° East 449 517 37,000  Level FlightAware
04:59PM 38.7140 -104.4910 104° East 450 518 37,000  Level FlightAware
04:59PM 38.6940 -104.3890 104° East 450 518 37,000  Level FlightAware
05:00PM 38.6780 -104.3060 104° East 450 518 37,000  Level FlightAware
05:01PM 38.6540 -104.1820 104° East 451 519 37,000  Level FlightAware
05:01PM 38.6340 -104.0820 104° East 451 519 37,000  Level FlightAware
05:02PM 38.6190 -104.0060 104° East 451 519 37,000  Level FlightAware
05:03PM 38.6030 -103.9250 104° East 451 519 37,000  Level FlightAware
05:03PM 38.5820 -103.8200 104° East 451 519 37,000  Level FlightAware
05:04PM 38.5630 -103.7250 104° East 451 519 37,000  Level FlightAware
05:04PM 38.5430 -103.6250 104° East 451 519 37,000  Level FlightAware
05:05PM 38.5270 -103.5430 104° East 450 518 37,000  Level FlightAware
05:06PM 38.5100 -103.4550 104° East 450 518 37,000  Level FlightAware
05:06PM 38.4940 -103.3740 104° East 450 518 37,000  Level FlightAware
05:07PM 38.4780 -103.2950 104° East 450 518 37,000  Level FlightAware
05:07PM 38.4550 -103.1620 102° East 447 514 37,000  Level FlightAware
05:08PM 38.4470 -103.0990 99° East 447 514 37,000  Level FlightAware
05:09PM 38.4380 -103.0200 98° East 447 514 37,000  Level FlightAware
05:09PM 38.4280 -102.9400 99° East 447 514 37,000  Level FlightAware
05:10PM 38.4180 -102.8650 100° East 447 514 37,000  Level FlightAware
05:10PM 38.4080 -102.7850 99° East 447 514 37,000  Level FlightAware
05:11PM 38.4030 -102.6560 93° East 449 517 37,000  Level FlightAware
05:11PM 38.3940 -102.5690 97° East 449 517 37,000  Level FlightAware
05:12PM 38.3870 -102.4880 96° East 449 517 37,000  Level FlightAware
05:13PM 38.3790 -102.4080 97° East 449 517 37,000  Level FlightAware
05:13PM 38.3590 -102.2580 100° East 448 516 37,000  Level FlightAware
05:14PM 38.3500 -102.1620 97° East 448 516 37,000  Level FlightAware
05:15PM 38.3420 -102.0820 97° East 448 516 37,000  Level FlightAware
05:15PM 38.3350 -102.0010 96° East 448 516 37,000  Level FlightAware
05:16PM 38.3270 -101.9190 97° East 448 516 37,000  Level FlightAware
05:16PM 38.3190 -101.8390 97° East 448 516 37,000  Level FlightAware
05:17PM 38.3110 -101.7580 97° East 448 516 37,000  Level FlightAware
05:18PM 38.3030 -101.6760 97° East 448 516 37,000  Level FlightAware
05:18PM 38.2960 -101.5980 96° East 448 516 37,000  Level FlightAware
05:19PM 38.2880 -101.5160 97° East 448 516 37,000  Level FlightAware
05:19PM 38.2800 -101.4350 97° East 448 516 37,000  Level FlightAware
05:20PM 38.2720 -101.3550 97° East 448 516 37,000  Level FlightAware
05:21PM 38.2640 -101.2730 97° East 448 516 37,000  Level FlightAware
05:21PM 38.2570 -101.1930 96° East 448 516 37,000  Level FlightAware
05:22PM 38.2490 -101.1100 97° East 448 516 37,000  Level FlightAware
05:22PM 38.2410 -101.0300 97° East 448 516 37,000  Level FlightAware
05:23PM 38.2330 -100.9500 97° East 448 516 37,000  Level FlightAware
05:29PM 38.5750 -99.8700 68° East 442 509 37,000  Level FlightAware
05:29PM 38.5870 -99.7820 80° East 442 509 37,000  Level FlightAware
05:30PM 38.5980 -99.7040 80° East 442 509 37,000  Level FlightAware
05:31PM 38.6090 -99.6250 80° East 442 509 37,000  Level FlightAware
05:31PM 38.6200 -99.5440 80° East 442 509 37,000  Level FlightAware
05:32PM 38.6370 -99.3930 82° East 441 507 37,000  Level FlightAware
05:32PM 38.6490 -99.3010 80° East 442 509 37,000  Level FlightAware
05:33PM 38.6610 -99.2080 81° East 441 507 37,000  Level FlightAware
05:34PM 38.6740 -99.1050 81° East 442 509 37,000  Level FlightAware
05:34PM 38.6840 -99.0310 80° East 442 509 37,000  Level FlightAware
05:35PM 38.6950 -98.9500 80° East 442 509 37,000  Level FlightAware
05:35PM 38.7070 -98.8690 79° East 442 509 37,000  Level FlightAware
05:36PM 38.7170 -98.7900 81° East 442 509 37,000  Level FlightAware
05:36PM 38.6300 -98.7030 142° Southeast 454 522 37,000  Level FlightAware
05:37PM 38.6170 -98.6180 101° East 453 521 37,000  Level FlightAware
05:37PM 38.6030 -98.5230 101° East 453 521 37,000  Level FlightAware
05:38PM 38.5880 -98.4280 101° East 453 521 37,000  Level FlightAware
05:38PM 38.5760 -98.3450 100° East 453 521 37,000  Level FlightAware
05:39PM 38.5610 -98.2500 101° East 452 520 37,000  Level FlightAware
05:40PM 38.5530 -98.1550 96° East 449 517 37,000  Level FlightAware
05:40PM 38.5450 -98.0550 96° East 449 517 37,000  Level FlightAware
05:41PM 38.5390 -97.9710 95° East 449 517 37,000  Level FlightAware
05:41PM 38.5310 -97.8760 96° East 450 518 37,000  Level FlightAware
05:42PM 38.5250 -97.7920 95° East 450 518 37,000  Level FlightAware
05:43PM 38.5170 -97.6950 96° East 451 519 37,000  Level FlightAware
05:43PM 38.5090 -97.6030 96° East 451 519 37,000  Level FlightAware
05:44PM 38.5020 -97.5210 96° East 451 519 37,000  Level FlightAware
05:44PM 38.4930 -97.4170 96° East 450 518 37,000  Level FlightAware
05:45PM 38.4870 -97.3320 95° East 451 519 37,000  Level FlightAware
05:45PM 38.4780 -97.2320 97° East 451 519 37,000  Level FlightAware
05:46PM 38.4710 -97.1500 96° East 451 519 37,000  Level FlightAware
05:47PM 38.4620 -97.0410 96° East 451 519 37,000  Level FlightAware
05:47PM 38.4540 -96.9470 96° East 451 519 37,000  Level FlightAware
05:48PM 38.4470 -96.8640 96° East 452 520 37,000  Level FlightAware
05:48PM 38.4390 -96.7780 97° East 452 520 37,000  Level FlightAware
05:49PM 38.4310 -96.6830 96° East 452 520 37,000  Level FlightAware
05:49PM 38.4230 -96.5970 97° East 451 519 37,000  Level FlightAware
05:50PM 38.4140 -96.5000 97° East 452 520 37,000  Level FlightAware
05:51PM 38.4060 -96.4130 97° East 452 520 37,000  Level FlightAware
05:51PM 38.3980 -96.3210 96° East 452 520 37,000  Level FlightAware
05:52PM 38.3890 -96.2220 97° East 452 520 37,000  Level FlightAware
05:52PM 38.3820 -96.1460 97° East 452 520 37,000  Level FlightAware
05:53PM 38.3720 -96.0450 97° East 451 519 37,000  Level FlightAware
05:54PM 38.3630 -95.9490 97° East 450 518 37,000  Level FlightAware
05:54PM 38.3540 -95.8560 97° East 449 517 37,000  Level FlightAware
05:55PM 38.3460 -95.7710 97° East 448 516 37,000  Level FlightAware
05:55PM 38.3370 -95.6780 97° East 447 514 37,000  Level FlightAware
05:56PM 38.3280 -95.5820 97° East 447 514 37,000  Level FlightAware
05:56PM 38.3180 -95.4900 98° East 447 514 37,000  Level FlightAware
05:57PM 38.3110 -95.4100 96° East 448 516 37,000  Level FlightAware
05:58PM 38.3000 -95.3080 98° East 449 517 37,000  Level FlightAware
05:58PM 38.2920 -95.2230 97° East 449 517 37,000  Level FlightAware
05:59PM 38.2820 -95.1270 98° East 450 518 37,000  Level FlightAware
05:59PM 38.2740 -95.0470 97° East 451 519 37,000  Level FlightAware
06:00PM 38.2640 -94.9540 98° East 451 519 37,000  Level FlightAware
06:00PM 38.2540 -94.8640 98° East 452 520 37,000  Level FlightAware
06:01PM 38.2430 -94.7600 98° East 452 520 37,000  Level FlightAware
06:02PM 38.2330 -94.6630 97° East 453 521 37,000  Level FlightAware
06:02PM 38.2240 -94.5740 97° East 454 522 37,000  Level FlightAware
06:03PM 38.2130 -94.4790 98° East 455 524 37,000  Level FlightAware
06:03PM 38.2040 -94.3940 98° East 455 524 37,000  Level FlightAware
06:04PM 38.1940 -94.3030 98° East 456 525 37,000  Level FlightAware
06:05PM 38.1830 -94.1990 98° East 456 525 37,000  Level FlightAware
06:05PM 38.1740 -94.1210 98° East 456 525 37,000  Level FlightAware
06:06PM 38.1620 -94.0140 98° East 457 526 37,000  Level FlightAware
06:06PM 38.1530 -93.9340 98° East 457 526 37,000  Level FlightAware
06:07PM 38.1420 -93.8350 98° East 458 527 37,000  Level FlightAware
06:08PM 38.1320 -93.7460 98° East 458 527 37,000  Level FlightAware
06:08PM 38.1200 -93.6490 99° East 459 528 37,000  Level FlightAware
06:09PM 38.1100 -93.5590 98° East 459 528 37,000  Level FlightAware
06:09PM 38.0990 -93.4680 99° East 460 529 37,000  Level FlightAware
06:10PM 38.0880 -93.3690 98° East 460 529 37,000  Level FlightAware
06:10PM 38.0760 -93.2720 99° East 460 529 37,000  Level FlightAware
06:11PM 38.0660 -93.1820 98° East 461 531 37,000  Level FlightAware
06:12PM 38.0540 -93.0900 99° East 462 532 37,000  Level FlightAware
06:12PM 38.0460 -92.9970 96° East 458 527 37,000  Level FlightAware
06:13PM 38.0470 -92.8810 89° East 450 518 37,000  Level FlightAware
06:14PM 38.0500 -92.7890 88° East 450 518 37,000  Level FlightAware
06:14PM 38.0520 -92.6950 88° East 448 516 37,000  Level FlightAware
06:15PM 38.0550 -92.6160 87° East 447 514 37,000  Level FlightAware
06:15PM 38.0590 -92.5140 87° East 445 512 37,000  Level FlightAware
06:16PM 38.0630 -92.4020 87° East 444 511 37,000  Level FlightAware
06:17PM 38.0670 -92.3050 87° East 443 510 37,000  Level FlightAware
06:17PM 38.0700 -92.2220 87° East 443 510 37,000  Level FlightAware
06:18PM 38.0730 -92.1420 87° East 443 510 37,000  Level FlightAware
06:18PM 38.0760 -92.0410 88° East 443 510 37,000  Level FlightAware
06:19PM 38.0790 -91.9480 88° East 443 510 37,000  Level FlightAware
06:19PM 38.0820 -91.8640 87° East 444 511 37,000  Level FlightAware
06:20PM 38.0850 -91.7720 88° East 444 511 37,000  Level FlightAware
06:21PM 38.0880 -91.6770 88° East 444 511 37,000  Level FlightAware
06:21PM 38.0900 -91.5970 88° East 444 511 37,000 60 Level FlightAware
06:22PM 38.0930 -91.4970 88° East 446 513 37,100 240 Climbing FlightAware
06:22PM 38.0960 -91.4060 88° East 449 517 37,300 300 Climbing FlightAware
06:23PM 38.0980 -91.3100 88° East 452 520 37,500 420 Climbing FlightAware
06:24PM 38.1010 -91.2250 87° East 453 521 37,800 420 Climbing FlightAware
06:24PM 38.1030 -91.1210 89° East 456 525 38,000 360 Climbing FlightAware
06:25PM 38.1060 -91.0300 88° East 456 525 38,300 480 Climbing FlightAware
06:25PM 38.1070 -90.9620 89° East 457 526 38,500 420 Climbing FlightAware
06:26PM 38.1100 -90.8490 88° East 458 527 38,800 360 Climbing FlightAware
06:26PM 38.1120 -90.7570 88° East 459 528 39,000 120 Climbing FlightAware
06:27PM 38.1130 -90.6660 89° East 459 528 39,000  Level FlightAware
06:28PM 38.1150 -90.5640 89° East 462 532 39,000  Level FlightAware
06:28PM 38.1170 -90.4690 88° East 464 534 39,000  Level FlightAware
06:29PM 38.1190 -90.3820 88° East 466 536 39,000  Level FlightAware
06:29PM 38.1200 -90.2770 89° East 468 539 39,000  Level FlightAware
06:30PM 38.1220 -90.1800 88° East 469 540 39,000  Level FlightAware
06:31PM 38.1230 -90.0860 89° East 469 540 39,000  Level FlightAware
06:31PM 38.1250 -89.9860 89° East 469 540 39,000  Level FlightAware
06:32PM 38.1260 -89.8960 89° East 469 540 39,000  Level FlightAware
06:32PM 38.1270 -89.7950 89° East 468 539 39,000  Level FlightAware
06:33PM 38.1290 -89.6950 89° East 468 539 39,000  Level FlightAware
06:33PM 38.1300 -89.5990 89° East 467 537 39,000  Level FlightAware
06:34PM 38.1310 -89.4980 89° East 467 537 39,000  Level FlightAware
06:35PM 38.1310 -89.4130 90° East 467 537 39,000  Level FlightAware
06:35PM 38.1320 -89.3130 89° East 467 537 39,000  Level FlightAware
06:36PM 38.1330 -89.2170 89° East 467 537 39,000  Level FlightAware
06:36PM 38.1340 -89.1270 89° East 467 537 39,000  Level FlightAware
06:37PM 38.1340 -89.0190 90° East 468 539 39,000  Level FlightAware
06:38PM 38.1350 -88.9320 89° East 468 539 39,000  Level FlightAware
06:38PM 38.1350 -88.8360 90° East 469 540 39,000  Level FlightAware
06:39PM 38.1360 -88.7360 89° East 471 542 39,000  Level FlightAware
06:39PM 38.1360 -88.6430 90° East 472 543 39,000  Level FlightAware
06:40PM 38.1360 -88.5460 90° East 473 544 39,000  Level FlightAware
06:40PM 38.1360 -88.4500 90° East 474 545 39,000  Level FlightAware
06:41PM 38.1360 -88.3560 90° East 476 548 39,000  Level FlightAware
06:42PM 38.1360 -88.2540 90° East 477 549 39,000  Level FlightAware
06:42PM 38.1360 -88.1590 90° East 477 549 39,000  Level FlightAware
06:43PM 38.1360 -88.0370 90° East 478 550 39,000  Level FlightAware
06:44PM 38.1350 -87.9380 91° East 479 551 39,000  Level FlightAware
06:44PM 38.1350 -87.8340 90° East 480 552 39,000  Level FlightAware
06:45PM 38.1410 -87.7460 85° East 474 545 39,000  Level FlightAware
06:45PM 38.1520 -87.6570 81° East 474 545 39,000  Level FlightAware
06:46PM 38.1660 -87.5520 80° East 473 544 39,000  Level FlightAware
06:46PM 38.1790 -87.4530 80° East 473 544 39,000  Level FlightAware
06:47PM 38.1920 -87.3600 80° East 473 544 39,000  Level FlightAware
06:48PM 38.2060 -87.2630 80° East 474 545 39,000  Level FlightAware
06:48PM 38.2120 -87.1680 85° East 478 550 39,000  Level FlightAware
06:49PM 38.2070 -87.0730 94° East 479 551 39,000  Level FlightAware
06:49PM 38.2020 -86.9730 94° East 478 550 39,000  Level FlightAware
06:50PM 38.1950 -86.8680 95° East 477 549 39,000  Level FlightAware
06:51PM 38.1900 -86.7800 94° East 478 550 39,000  Level FlightAware
06:51PM 38.1840 -86.6920 95° East 478 550 39,000  Level FlightAware
06:52PM 38.1780 -86.5880 94° East 478 550 39,000  Level FlightAware
06:52PM 38.1700 -86.4890 96° East 480 552 39,000  Level FlightAware
06:53PM 38.1630 -86.3920 95° East 481 554 39,000  Level FlightAware
06:53PM 38.1560 -86.2910 95° East 483 556 39,000  Level FlightAware
06:54PM 38.1480 -86.1800 95° East 484 557 39,000  Level FlightAware
06:55PM 38.1420 -86.0880 95° East 485 558 39,000  Level FlightAware
06:55PM 38.1340 -85.9870 96° East 487 560 39,000  Level FlightAware
06:56PM 38.1270 -85.8840 95° East 488 562 39,000  Level FlightAware
06:56PM 38.1190 -85.7810 96° East 490 564 39,000  Level FlightAware
06:57PM 38.1120 -85.6920 96° East 491 565 39,000  Level FlightAware
06:58PM 38.1030 -85.5860 96° East 492 566 39,000  Level FlightAware
06:58PM 38.0890 -85.4830 100° East 493 567 39,000  Level FlightAware
06:59PM 38.0750 -85.3920 101° East 494 568 39,000  Level FlightAware
06:59PM 38.0590 -85.2910 101° East 494 568 39,000  Level FlightAware
07:00PM 38.0440 -85.1970 101° East 495 570 39,000  Level FlightAware
07:00PM 38.0332 -85.1261 101° East 496 571 39,000  Level FlightAware ADS-B
07:01PM 38.0180 -85.0299 101° East 496 571 39,000  Level FlightAware ADS-B
07:01PM 38.0015 -84.9261 101° East 497 572 39,000  Level FlightAware ADS-B
07:02PM 37.9790 -84.7860 101° East 495 570 39,000  Level FlightAware
07:03PM 37.9660 -84.7060 102° East 495 570 39,000  Level FlightAware
07:03PM 37.9530 -84.6160 100° East 496 571 39,000  Level FlightAware
07:04PM 37.9500 -84.5110 92° East 498 573 39,000  Level FlightAware
07:04PM 37.9470 -84.4060 92° East 498 573 39,000  Level FlightAware
07:05PM 37.9450 -84.3010 91° East 497 572 39,000  Level FlightAware
07:06PM 37.9427 -84.2096 92° East 497 572 39,000  Level FlightAware ADS-B
07:06PM 37.9410 -84.1143 91° East 496 571 39,000  Level FlightAware ADS-B
07:06PM 37.9407 -84.0566 90° East 495 570 39,000  Level FlightAware ADS-B
07:07PM 37.9407 -83.9261 90° East 494 568 39,000  Level FlightAware ADS-B
07:08PM 37.9271 -83.8314 100° East 491 565 39,000  Level FlightAware ADS-B
07:08PM 37.9120 -83.7140 99° East 490 564 39,000  Level FlightAware
07:09PM 37.9080 -83.6250 93° East 492 566 39,000  Level FlightAware
07:10PM 37.9090 -83.5110 89° East 488 562 39,000  Level FlightAware
07:10PM 37.9090 -83.4070 90° East 485 558 39,000  Level FlightAware
07:11PM 37.9090 -83.3530 90° East 485 558 39,000  Level FlightAware
07:11PM 37.9090 -83.2210 90° East 487 560 39,000  Level FlightAware
07:12PM 37.9090 -83.1290 90° East 485 558 39,000  Level FlightAware
07:12PM 37.9092 -83.0261 90° East 486 559 39,000  Level FlightAware ADS-B
07:13PM 37.9093 -82.9395 90° East 486 559 39,000  Level FlightAware ADS-B
07:13PM 37.9093 -82.8543 90° East 487 560 39,000  Level FlightAware ADS-B
07:14PM 37.9093 -82.7671 90° East 487 560 39,000  Level FlightAware ADS-B
07:15PM 37.9092 -82.6784 90° East 488 562 39,000  Level FlightAware ADS-B
07:15PM 37.9090 -82.5918 90° East 487 560 39,000  Level FlightAware ADS-B
07:16PM 37.9090 -82.5060 90° East 489 563 39,000  Level FlightAware
07:16PM 37.9086 -82.4674 91° East 488 562 39,000  Level FlightAware ADS-B
07:16PM 37.9082 -82.3756 90° East 495 570 39,000  Level FlightAware ADS-B
07:17PM 37.9077 -82.2836 90° East 499 574 39,000  Level FlightAware ADS-B
07:17PM 37.9072 -82.1955 90° East 502 578 39,000  Level FlightAware ADS-B
07:18PM 37.9066 -82.1052 90° East 504 580 39,000  Level FlightAware ADS-B
07:18PM 37.9060 -81.9900 90° East 508 585 39,000  Level FlightAware
07:19PM 37.9055 -81.9669 92° East 507 583 39,000  Level FlightAware ADS-B
07:20PM 37.9040 -81.7910 91° East 508 585 39,000  Level FlightAware
07:20PM 37.9028 -81.6890 91° East 508 585 39,000  Level FlightAware ADS-B
07:21PM 37.9020 -81.5730 90° East 508 585 39,000  Level FlightAware
07:21PM 37.9010 -81.4870 91° East 505 581 39,000  Level FlightAware
07:22PM 37.8990 -81.3980 92° East 503 579 39,000  Level FlightAware
07:22PM 37.8980 -81.2910 91° East 500 575 39,000  Level FlightAware
07:23PM 37.8970 -81.1930 91° East 499 574 39,000  Level FlightAware
07:24PM 37.8950 -81.0860 91° East 498 573 39,000  Level FlightAware
07:24PM 37.8930 -80.9820 91° East 499 574 39,000  Level FlightAware
07:25PM 37.8920 -80.8810 91° East 499 574 39,000  Level FlightAware
07:25PM 37.8900 -80.7740 91° East 501 577 39,000  Level FlightAware
07:26PM 37.8880 -80.6790 91° East 502 578 39,000  Level FlightAware
07:27PM 37.8860 -80.5740 91° East 505 581 39,000  Level FlightAware
07:27PM 37.8840 -80.4650 91° East 506 582 39,000  Level FlightAware
07:28PM 37.8820 -80.3700 91° East 507 583 39,000  Level FlightAware
07:28PM 37.8800 -80.2630 91° East 506 582 39,000  Level FlightAware
07:29PM 37.8770 -80.1560 92° East 507 583 39,000  Level FlightAware
07:29PM 37.8750 -80.0490 91° East 506 582 39,000  Level FlightAware
07:30PM 37.8720 -79.9590 92° East 505 581 39,000  Level FlightAware
07:31PM 37.8700 -79.8480 91° East 504 580 39,000  Level FlightAware
07:31PM 37.8680 -79.7620 92° East 503 579 39,000  Level FlightAware
07:32PM 37.8730 -79.6180 87° East 503 579 39,000  Level FlightAware
07:33PM 37.8800 -79.4920 86° East 500 575 39,000  Level FlightAware
07:33PM 37.8870 -79.3780 86° East 498 573 39,000  Level FlightAware
07:34PM 37.8930 -79.2530 86° East 496 571 39,000  Level FlightAware
07:35PM 37.8970 -79.1610 87° East 495 570 39,000  Level FlightAware
07:35PM 37.8850 -79.0570 98° East 482 555 39,000  Level FlightAware
07:36PM 37.8610 -78.9650 108° East 480 552 39,000  Level FlightAware
07:36PM 37.8330 -78.8670 110° East 480 552 39,000  Level FlightAware
07:37PM 37.8070 -78.7790 110° East 481 554 39,000  Level FlightAware
07:37PM 37.7820 -78.6930 110° East 482 555 39,000  Level FlightAware
07:38PM 37.7540 -78.5960 110° East 483 556 39,000  Level FlightAware
07:39PM 37.7290 -78.5090 110° East 485 558 39,000  Level FlightAware
07:39PM 37.7000 -78.4110 110° East 485 558 39,000  Level FlightAware
07:40PM 37.6730 -78.3170 110° East 485 558 39,000  Level FlightAware
07:40PM 37.6450 -78.2230 111° Southeast 485 558 39,000  Level FlightAware
07:41PM 37.6190 -78.1320 110° East 484 557 39,000  Level FlightAware
07:42PM 37.5930 -78.0450 111° Southeast 483 556 39,000  Level FlightAware
07:42PM 37.5650 -77.9520 111° Southeast 482 555 39,000  Level FlightAware
07:43PM 37.5400 -77.8620 109° East 483 556 39,000  Level FlightAware
07:43PM 37.5230 -77.7560 101° East 490 564 39,000  Level FlightAware
07:44PM 37.5160 -77.6600 95° East 489 563 39,000  Level FlightAware
07:44PM 37.5100 -77.5570 94° East 489 563 39,000  Level FlightAware
07:45PM 37.5030 -77.4580 95° East 487 560 39,000  Level FlightAware
07:46PM 37.4970 -77.3710 95° East 485 558 39,000  Level FlightAware
07:46PM 37.4900 -77.2660 95° East 485 558 39,000  Level FlightAware
07:47PM 37.4830 -77.1650 95° East 484 557 39,000  Level FlightAware
07:47PM 37.4750 -77.0630 96° East 483 556 39,000  Level FlightAware
07:48PM 37.4680 -76.9730 96° East 483 556 39,000  Level FlightAware
07:49PM 37.4600 -76.8780 96° East 479 551 39,000  Level FlightAware
07:49PM 37.4490 -76.8330 107° East 471 542 39,000  Level FlightAware
07:49PM 37.4130 -76.7540 120° Southeast 461 531 39,000  Level FlightAware
07:50PM 37.3780 -76.6830 122° Southeast 464 534 39,000  Level FlightAware
07:50PM 37.3670 -76.6340 106° East 473 544 39,000  Level FlightAware
07:51PM 37.3710 -76.5560 86° East 486 559 39,000  Level FlightAware
07:51PM 37.3890 -76.5060 66° East 495 570 39,000  Level FlightAware
07:52PM 37.4400 -76.4290 50° Northeast 497 572 39,000  Level FlightAware
07:52PM 37.4850 -76.3640 49° Northeast 496 571 39,000  Level FlightAware
07:53PM 37.5430 -76.2810 49° Northeast 496 571 39,000  Level FlightAware
07:53PM 37.5940 -76.2070 49° Northeast 495 570 39,000  Level FlightAware
07:54PM 37.6520 -76.1230 49° Northeast 493 567 39,000  Level FlightAware
07:55PM 37.7250 -76.0130 50° Northeast 493 567 39,000 -180 Level FlightAware
07:55PM 37.7680 -75.9440 52° Northeast 492 566 38,800 -960 Descending FlightAware
07:56PM 37.8230 -75.8520 53° Northeast 496 571 37,900 -1,320 Descending FlightAware
07:56PM 37.8710 -75.7750 52° Northeast 498 573 37,200 -840 Descending FlightAware
07:57PM 37.9310 -75.7060 42° Northeast 499 574 37,000 -180 Descending FlightAware
07:58PM 38.0010 -75.6500 32° Northeast 499 574 37,000  Level FlightAware
07:58PM 38.0730 -75.5950 31° Northeast 498 573 37,000  Level FlightAware
07:59PM 38.1360 -75.5480 30° Northeast 499 574 37,000  Level FlightAware
07:59PM 38.2060 -75.4940 31° Northeast 501 577 37,000 -360 Level FlightAware
08:00PM 38.2790 -75.4380 31° Northeast 498 573 36,600 -900 Descending FlightAware
08:01PM 38.3430 -75.3880 31° Northeast 499 574 36,000 -1,140 Descending FlightAware
08:01PM 38.4100 -75.3360 31° Northeast 499 574 35,400 -960 Descending FlightAware
08:02PM 38.4690 -75.2910 31° Northeast 500 575 35,000 -360 Descending FlightAware
08:02PM 38.5540 -75.2250 31° Northeast 502 578 35,000  Level FlightAware
08:03PM 38.6270 -75.1680 31° Northeast 502 578 35,000  Level FlightAware
08:03PM 38.6890 -75.1200 31° Northeast 504 580 35,000  Level FlightAware
08:04PM 38.7480 -75.0740 31° Northeast 505 581 35,000  Level FlightAware
08:05PM 38.8190 -75.0180 32° Northeast 506 582 35,000  Level FlightAware
08:05PM 38.8950 -74.9580 32° Northeast 506 582 35,000  Level FlightAware
08:06PM 38.9720 -74.8990 31° Northeast 506 582 35,000  Level FlightAware
08:07PM 39.0630 -74.8260 32° Northeast 501 577 35,000 -120 Level FlightAware
08:07PM 39.1330 -74.7600 36° Northeast 512 589 34,900 -960 Descending FlightAware
08:08PM 39.2090 -74.6780 40° Northeast 518 596 33,800 -2,700 Descending FlightAware
08:09PM 39.2740 -74.6080 40° Northeast 513 590 31,500 -4,680 Descending FlightAware
08:09PM 39.3260 -74.5500 41° Northeast 524 603 28,700 -4,440 Descending FlightAware
08:10PM 39.3940 -74.4760 40° Northeast 489 563 26,500 -4,080 Descending FlightAware
08:10PM 39.4600 -74.4050 40° Northeast 467 537 23,600 -4,800 Descending FlightAware
08:11PM 39.5200 -74.3390 40° Northeast 469 540 20,500 -3,720 Descending FlightAware
08:11PM 39.5640 -74.2910 40° Northeast 444 511 19,400 -1,380 Descending FlightAware
08:12PM 39.6280 -74.2210 40° Northeast 447 514 19,000 -360 Descending FlightAware
08:13PM 39.6860 -74.1580 40° Northeast 441 507 19,000  Level FlightAware
08:13PM 39.7360 -74.1020 41° Northeast 443 510 19,000 -1,380 Level FlightAware
08:14PM 39.7980 -74.0580 29° Northeast 421 484 17,500 -2,700 Descending FlightAware
08:15PM 39.8960 -74.0590 360° North 398 458 15,100 -2,640 Descending FlightAware
08:15PM 39.9690 -74.0550 North 394 453 13,500 -2,340 Descending FlightAware
08:16PM 39.9970 -74.0360 27° Northeast 393 452 12,900 -1,680 Descending FlightAware
08:16PM 40.0120 -74.0160 46° Northeast 390 449 12,700 -1,260 Descending FlightAware
08:16PM 40.0230 -73.9910 60° Northeast 385 443 12,400 -1,020 Descending FlightAware
08:17PM 40.0330 -73.9120 81° East 360 414 11,900 -840 Descending FlightAware
08:17PM 40.0490 -73.8710 63° Northeast 341 392 11,600 -780 Descending FlightAware
08:18PM 40.0850 -73.8170 49° Northeast 314 361 11,200 -840 Descending FlightAware
08:18PM 40.1210 -73.7870 33° Northeast 296 341 10,700 -1,200 Descending FlightAware
08:19PM 40.1560 -73.7610 30° Northeast 293 337 10,000 -1,500 Descending FlightAware
08:19PM 40.1840 -73.7390 31° Northeast 292 336 9,400 -1,560 Descending FlightAware
08:19PM 40.1960 -73.7300 30° Northeast 292 336 9,100 -1,500 Descending FlightAware
08:19PM 40.2220 -73.7110 29° Northeast 291 335 8,600 -1,380 Descending FlightAware
08:20PM 40.2460 -73.6920 31° Northeast 292 336 8,100 -1,500 Descending FlightAware
08:20PM 40.2730 -73.6720 29° Northeast 290 334 7,500 -1,440 Descending FlightAware
08:21PM 40.2950 -73.6560 29° Northeast 288 331 7,100 -1,200 Descending FlightAware
08:21PM 40.3190 -73.6390 28° Northeast 285 328 6,700 -1,260 Descending FlightAware
08:21PM 40.3470 -73.6190 29° Northeast 281 323 6,200 -1,380 Descending FlightAware
08:22PM 40.3700 -73.6030 28° Northeast 280 322 5,700 -1,320 Descending FlightAware
08:22PM 40.3820 -73.5940 30° Northeast 279 321 5,500 -1,260 Descending FlightAware
08:22PM 40.4130 -73.5720 28° Northeast 279 321 4,900 -1,440 Descending FlightAware
08:23PM 40.4320 -73.5590 28° Northeast 278 320 4,500 -1,140 Descending FlightAware
08:23PM 40.4550 -73.5430 28° Northeast 276 318 4,200 -480 Descending FlightAware
08:23PM 40.4770 -73.5280 27° Northeast 275 316 4,200  Level FlightAware
08:24PM 40.5040 -73.5100 27° Northeast 275 316 4,200  Level FlightAware
08:24PM 40.5190 -73.5000 27° Northeast 276 318 4,200  Level FlightAware
08:24PM 40.5440 -73.4830 27° Northeast 276 318 4,200  Level FlightAware
08:24PM 40.5670 -73.4670 28° Northeast 279 321 4,200  Level FlightAware
08:25PM 40.5910 -73.4510 27° Northeast 278 320 4,200  Level FlightAware
08:25PM 40.6140 -73.4350 28° Northeast 278 320 4,200  Level FlightAware
08:26PM 40.6410 -73.4170 27° Northeast 276 318 4,200  Level FlightAware
08:26PM 40.6500 -73.4140 14° North 276 318 4,200  Level FlightAware
08:26PM 40.6660 -73.4110 North 276 318 4,200 -240 Level FlightAware
08:26PM 40.6920 -73.4060 North 271 312 4,100  Descending FlightAware
08:27PM 40.7210 -73.4000 North 265 305 4,200  Climbing FlightAware
08:27PM 40.7420 -73.3960 North 262 302 4,100  Descending FlightAware
08:27PM 40.7680 -73.4020 350° North 239 275 4,200 60 Climbing FlightAware
08:28PM 40.7940 -73.4150 339° North 217 250 4,200  Level FlightAware
08:28PM 40.8130 -73.4240 340° North 218 251 4,200 -240 Level FlightAware
08:28PM 40.8240 -73.4310 334° Northwest 216 249 4,100 -300 Descending FlightAware
08:28PM 40.8290 -73.4360 323° Northwest 213 245 4,100 -480 Level FlightAware
08:29PM 40.8330 -73.4450 300° West 206 237 4,000 -780 Descending FlightAware
08:29PM 40.8360 -73.4550 292° West 204 235 3,900 -900 Descending FlightAware
08:29PM 40.8370 -73.4630 279° West 202 232 3,800 -1,320 Descending FlightAware
08:29PM 40.8400 -73.4910 278° West 203 234 3,300 -1,020 Descending FlightAware
08:30PM 40.8420 -73.5140 277° West 202 232 3,100 -300 Descending FlightAware
08:30PM 40.8450 -73.5390 279° West 204 235 3,100 -120 Level FlightAware
08:30PM 40.8400 -73.5850 262° West 193 222 3,000 -300 Descending FlightAware
08:31PM 40.8300 -73.6030 234° Southwest 184 212 2,800 -480 Descending FlightAware
08:31PM 40.8170 -73.6190 223° Southwest 179 206 2,700 -480 Descending FlightAware
08:31PM 40.8030 -73.6310 213° Southwest 178 205 2,500 -300 Descending FlightAware
08:32PM 40.7890 -73.6430 213° Southwest 179 206 2,500 -300 Level FlightAware
08:32PM 40.7740 -73.6540 209° Southwest 180 207 2,300 -540 Descending FlightAware
08:32PM 40.7630 -73.6630 212° Southwest 173 199 2,200 -420 Descending FlightAware
08:33PM 40.7520 -73.6710 209° Southwest 163 188 2,100  Descending FlightAware
08:33PM 40.7410 -73.6800 212° Southwest 157 181 2,200  Climbing FlightAware
08:33PM 40.7300 -73.6880 209° Southwest 158 182 2,100 -720 Descending FlightAware
08:34PM 40.7180 -73.6980 212° Southwest 155 178 1,800 -960 Descending FlightAware
08:34PM 40.7110 -73.7040 213° Southwest 151 174 1,600 -840 Descending FlightAware
08:34PM 40.6970 -73.7150 211° Southwest 135 155 1,300 -720 Descending FlightAware
08:35PM 40.6860 -73.7230 209° Southwest 131 151 1,100 -600 Descending FlightAware
08:35PM 40.6800 -73.7280 212° Southwest 131 151 1,000 -540 Descending FlightAware
08:35PM 40.6670 -73.7380 210° Southwest 132 152 800 -720 Descending FlightAware
08:35PM 40.6570 -73.7460 211° Southwest 131 151 500 -780 Descending FlightAware
08:36PM 40.6460 -73.7540 209° Southwest 126 145 300 -600 Descending FlightAware
08:36PM 40.6370 -73.7610 211° Southwest 110 127 -960 Descending FlightAware